createdAt,value
2019-02-08T00:00:01.879Z,6.9
2019-02-08T00:05:01.497Z,6.9
2019-02-08T00:10:02.059Z,6.9
2019-02-08T00:15:02.124Z,6.9
2019-02-08T00:20:01.597Z,6.9
2019-02-08T00:25:01.586Z,6.9
2019-02-08T00:30:02.077Z,6.9
2019-02-08T00:35:01.864Z,6.8
2019-02-08T00:40:02.212Z,6.8
2019-02-08T00:45:01.913Z,6.8
2019-02-08T00:50:01.550Z,6.8
2019-02-08T00:55:01.506Z,6.8
2019-02-08T01:00:01.675Z,6.7
2019-02-08T01:05:01.393Z,6.7
2019-02-08T01:10:01.866Z,6.7
2019-02-08T01:15:02.287Z,6.7
2019-02-08T01:20:01.732Z,6.6
2019-02-08T01:25:01.535Z,6.6
2019-02-08T01:30:01.808Z,6.5
2019-02-08T01:35:01.809Z,6.5
2019-02-08T01:40:01.966Z,6.5
2019-02-08T01:45:01.960Z,6.5
2019-02-08T01:50:01.903Z,6.6
2019-02-08T01:55:01.471Z,6.6
2019-02-08T02:00:01.984Z,6.6
2019-02-08T02:05:01.757Z,6.6
2019-02-08T02:10:01.253Z,6.5
2019-02-08T02:15:01.259Z,6.5
2019-02-08T02:20:02.203Z,6.5
2019-02-08T02:25:01.752Z,6.6
2019-02-08T02:30:01.653Z,6.6
2019-02-08T02:35:01.947Z,6.6
2019-02-08T02:40:02.004Z,6.7
2019-02-08T02:45:01.219Z,6.7
2019-02-08T02:50:01.688Z,6.8
2019-02-08T02:55:01.594Z,6.8
2019-02-08T03:00:01.433Z,6.8
2019-02-08T03:05:01.192Z,6.8
2019-02-08T03:10:01.429Z,6.8
2019-02-08T03:15:01.451Z,6.9
2019-02-08T03:20:01.995Z,6.9
2019-02-08T03:25:02.010Z,6.9
2019-02-08T03:30:02.177Z,7
2019-02-08T03:35:01.595Z,7
2019-02-08T03:40:01.731Z,7
2019-02-08T03:45:01.294Z,7
2019-02-08T03:50:02.155Z,7
2019-02-08T03:55:01.790Z,7
2019-02-08T04:00:01.862Z,7
2019-02-08T04:05:01.628Z,7
2019-02-08T04:10:01.299Z,7
2019-02-08T04:15:01.444Z,7
2019-02-08T04:20:01.919Z,7
2019-02-08T04:25:01.503Z,7
2019-02-08T04:30:02.153Z,7
2019-02-08T04:35:01.934Z,7
2019-02-08T04:40:01.342Z,7
2019-02-08T04:45:01.422Z,7.1
2019-02-08T04:50:02.374Z,7
2019-02-08T04:55:01.807Z,7
2019-02-08T05:00:01.990Z,7
2019-02-08T05:05:01.150Z,7
2019-02-08T05:10:01.984Z,7
2019-02-08T05:15:01.811Z,7
2019-02-08T05:20:01.430Z,7
2019-02-08T05:25:01.379Z,7
2019-02-08T05:30:02.311Z,6.9
2019-02-08T05:35:01.870Z,6.9
2019-02-08T05:40:01.987Z,6.9
2019-02-08T05:45:01.871Z,6.9
2019-02-08T05:50:01.875Z,6.9
2019-02-08T05:55:01.650Z,6.9
2019-02-08T06:00:01.537Z,6.9
2019-02-08T06:05:01.477Z,6.8
2019-02-08T06:10:01.600Z,6.7
2019-02-08T06:15:01.969Z,6.7
2019-02-08T06:20:01.710Z,6.6
2019-02-08T06:25:03.388Z,6.6
2019-02-08T06:30:01.667Z,6.7
2019-02-08T06:35:01.487Z,6.7
2019-02-08T06:40:02.469Z,6.7
2019-02-08T06:45:01.352Z,6.8
2019-02-08T06:50:01.409Z,6.8
2019-02-08T06:55:01.995Z,6.7
2019-02-08T07:00:01.517Z,6.7
2019-02-08T07:05:01.351Z,6.8
2019-02-08T07:10:01.635Z,6.8
2019-02-08T07:15:01.784Z,6.8
2019-02-08T07:20:01.264Z,6.8
2019-02-08T07:25:02.130Z,6.9
2019-02-08T07:30:01.491Z,6.9
2019-02-08T07:35:01.640Z,7
2019-02-08T07:40:02.043Z,7
2019-02-08T07:45:02.064Z,7
2019-02-08T07:50:01.323Z,7
2019-02-08T07:55:01.630Z,7
2019-02-08T08:00:01.853Z,7.1
2019-02-08T08:05:01.632Z,7.1
2019-02-08T08:10:01.893Z,7.1
2019-02-08T08:15:01.658Z,7.1
2019-02-08T08:20:01.251Z,7.2
2019-02-08T08:25:02.184Z,7.1
2019-02-08T08:30:02.091Z,7.1
2019-02-08T08:35:01.807Z,7.1
2019-02-08T08:40:01.799Z,7.1
2019-02-08T08:45:02.249Z,7.1
2019-02-08T08:50:01.781Z,7.1
2019-02-08T08:55:01.909Z,7.2
2019-02-08T09:00:02.329Z,7.2
2019-02-08T09:05:01.923Z,7.2
2019-02-08T09:10:01.896Z,7.2
2019-02-08T09:15:01.426Z,7.3
2019-02-08T09:20:02.411Z,7.3
2019-02-08T09:25:01.608Z,7.4
2019-02-08T09:30:02.067Z,7.3
2019-02-08T09:35:01.855Z,7.3
2019-02-08T09:40:01.752Z,7.2
2019-02-08T09:45:01.892Z,7.2
2019-02-08T09:50:01.672Z,7.2
2019-02-08T09:55:02.087Z,7.1
2019-02-08T10:00:01.625Z,7.1
2019-02-08T10:05:01.402Z,7.1
2019-02-08T10:10:01.243Z,7.2
2019-02-08T10:15:02.324Z,7.2
2019-02-08T10:20:01.417Z,7.2
2019-02-08T10:25:02.007Z,7.3
2019-02-08T10:30:01.623Z,7.3
2019-02-08T10:35:01.460Z,7.3
2019-02-08T10:40:02.122Z,7.3
2019-02-08T10:45:01.210Z,7.3
2019-02-08T10:50:01.472Z,7.3
2019-02-08T10:55:01.136Z,7.4
2019-02-08T11:00:01.684Z,7.3
2019-02-08T11:05:01.508Z,7.3
2019-02-08T11:10:01.325Z,7.5
2019-02-08T11:15:01.682Z,7.5
2019-02-08T11:20:01.503Z,7.5
2019-02-08T11:25:02.085Z,7.8
2019-02-08T11:30:01.952Z,7.9
2019-02-08T11:35:01.997Z,8
2019-02-08T11:40:01.979Z,8.1
2019-02-08T11:45:01.614Z,8.1
2019-02-08T11:50:02.028Z,8.2
2019-02-08T11:55:01.932Z,8.1
2019-02-08T12:00:01.777Z,8.1
2019-02-08T12:05:01.854Z,7.9
2019-02-08T12:10:02.117Z,7.8
2019-02-08T12:15:01.848Z,7.7
2019-02-08T12:20:01.920Z,7.7
2019-02-08T12:25:01.260Z,7.6
2019-02-08T12:30:01.670Z,7.6
2019-02-08T12:35:01.886Z,7.4
2019-02-08T12:40:02.032Z,7.3
2019-02-08T12:45:01.349Z,7.2
2019-02-08T12:50:02.039Z,7.1
2019-02-08T12:55:02.178Z,7.1
2019-02-08T13:00:01.826Z,7.1
2019-02-08T13:05:01.848Z,7.1
2019-02-08T13:10:01.450Z,7.1
2019-02-08T13:15:02.061Z,7.2
2019-02-08T13:20:02.227Z,7.2
2019-02-08T13:25:01.596Z,7.3
2019-02-08T13:30:02.053Z,7.4
2019-02-08T13:35:01.938Z,7.5
2019-02-08T13:40:01.912Z,7.6
2019-02-08T13:45:01.408Z,7.6
2019-02-08T13:50:01.516Z,7.8
2019-02-08T13:55:02.039Z,7.9
2019-02-08T14:00:01.960Z,8.1
2019-02-08T14:05:01.318Z,8.2
2019-02-08T14:10:02.197Z,8.2
2019-02-08T14:15:01.223Z,8.2
2019-02-08T14:20:01.666Z,8.1
2019-02-08T14:25:01.272Z,8.1
2019-02-08T14:30:02.422Z,8.2
2019-02-08T14:35:02.339Z,8.2
2019-02-08T14:40:01.929Z,8.2
2019-02-08T14:45:01.221Z,8.2
2019-02-08T14:50:02.053Z,8.2
2019-02-08T14:55:01.836Z,8.2
2019-02-08T15:00:01.348Z,8.2
2019-02-08T15:05:01.580Z,8.2
2019-02-08T15:10:02.229Z,8.2
2019-02-08T15:15:01.219Z,8.3
2019-02-08T15:20:02.389Z,8.3
2019-02-08T15:25:01.748Z,8.3
2019-02-08T15:30:01.467Z,8.3
2019-02-08T15:35:01.271Z,8.3
2019-02-08T15:40:01.424Z,8.3
2019-02-08T15:45:01.418Z,8.3
2019-02-08T15:50:01.670Z,8.2
2019-02-08T15:55:01.542Z,8.2
2019-02-08T16:00:02.046Z,8.2
2019-02-08T16:05:01.356Z,8.2
2019-02-08T16:10:01.801Z,8.2
2019-02-08T16:15:02.145Z,8.2
2019-02-08T16:20:01.938Z,8.2
2019-02-08T16:25:01.627Z,8.1
2019-02-08T16:30:01.611Z,8.1
2019-02-08T16:35:01.413Z,8.1
2019-02-08T16:40:02.353Z,8.1
2019-02-08T16:45:01.428Z,8.1
2019-02-08T16:50:01.287Z,8
2019-02-08T16:55:01.808Z,8
2019-02-08T17:00:01.740Z,8
2019-02-08T17:05:01.487Z,8
2019-02-08T17:10:01.616Z,8
2019-02-08T17:15:01.911Z,7.9
2019-02-08T17:20:01.921Z,7.9
2019-02-08T17:25:01.730Z,7.9
2019-02-08T17:30:01.455Z,7.9
2019-02-08T17:35:02.214Z,7.8
2019-02-08T17:40:01.691Z,7.8
2019-02-08T17:45:02.349Z,7.8
2019-02-08T17:50:02.369Z,7.8
2019-02-08T17:55:01.680Z,7.8
2019-02-08T18:00:01.456Z,7.8
2019-02-08T18:05:01.803Z,7.7
2019-02-08T18:10:01.829Z,7.7
2019-02-08T18:15:01.952Z,7.6
2019-02-08T18:20:02.396Z,7.5
2019-02-08T18:25:01.279Z,7.5
2019-02-08T18:30:01.780Z,7.5
2019-02-08T18:35:01.655Z,7.5
2019-02-08T18:40:01.930Z,7.5
2019-02-08T18:45:02.191Z,7.4
2019-02-08T18:50:01.700Z,7.4
2019-02-08T18:55:01.506Z,7.4
2019-02-08T19:00:01.999Z,7.4
2019-02-08T19:05:01.958Z,7.4
2019-02-08T19:10:02.257Z,7.4
2019-02-08T19:15:02.199Z,7.4
2019-02-08T19:20:02.294Z,7.5
2019-02-08T19:25:02.078Z,7.5
2019-02-08T19:30:01.568Z,7.5
2019-02-08T19:35:01.434Z,7.6
2019-02-08T19:40:01.775Z,7.6
2019-02-08T19:45:01.598Z,7.6
2019-02-08T19:50:01.850Z,7.7
2019-02-08T19:55:01.892Z,7.7
2019-02-08T20:00:02.307Z,7.7
2019-02-08T20:05:02.047Z,7.7
2019-02-08T20:10:01.972Z,7.8
2019-02-08T20:15:01.536Z,7.8
2019-02-08T20:20:01.949Z,7.8
2019-02-08T20:25:01.856Z,7.8
2019-02-08T20:30:01.831Z,7.8
2019-02-08T20:35:02.327Z,7.8
2019-02-08T20:40:01.499Z,7.8
2019-02-08T20:45:01.381Z,7.8
2019-02-08T20:50:02.698Z,7.9
2019-02-08T20:55:01.267Z,7.9
2019-02-08T21:00:01.950Z,7.9
2019-02-08T21:05:01.548Z,7.9
2019-02-08T21:10:02.032Z,7.9
2019-02-08T21:15:01.167Z,7.9
2019-02-08T21:20:02.036Z,8
2019-02-08T21:25:02.658Z,8
2019-02-08T21:30:02.093Z,8
2019-02-08T21:35:01.954Z,8.1
2019-02-08T21:40:01.705Z,8.1
2019-02-08T21:45:01.715Z,8.1
2019-02-08T21:50:02.301Z,8.1
2019-02-08T21:55:01.531Z,8.1
2019-02-08T22:00:01.511Z,8.1
2019-02-08T22:05:02.115Z,8.1
2019-02-08T22:10:01.616Z,8.1
2019-02-08T22:15:02.181Z,8.1
2019-02-08T22:20:02.315Z,8.2
2019-02-08T22:25:01.846Z,8.2
2019-02-08T22:30:01.192Z,8.2
2019-02-08T22:35:01.990Z,8.3
2019-02-08T22:40:01.470Z,8.3
2019-02-08T22:45:08.537Z,8.3
2019-02-08T22:50:02.295Z,8.4
2019-02-08T22:55:01.857Z,8.4
2019-02-08T23:00:02.105Z,8.4
2019-02-08T23:05:01.928Z,8.4
2019-02-08T23:10:01.912Z,8.4
2019-02-08T23:15:02.052Z,8.4
2019-02-08T23:20:01.694Z,8.4
2019-02-08T23:25:01.707Z,8.5
2019-02-08T23:30:01.871Z,8.5
2019-02-08T23:35:01.792Z,8.5
2019-02-08T23:40:01.345Z,8.5
2019-02-08T23:45:01.925Z,8.5
2019-02-08T23:50:01.591Z,8.5
2019-02-08T23:55:01.430Z,8.5
